LEPP/PNA METAR and TAF weather

Enter ICAO airport designator
Station Type Date Time Source
LEPP METAR 2020/11/28 19:00 UTC NOAA

LEPP 281900Z 10005KT 8000 SCT058 09/06 Q1010


Station Type Date Time Source
LEPP Decoded METAR 2020/11/28 19:00 UTC NOAA

Pamplona / Noain, Spain (LEPP) 42-46N 001-38W 453M
Nov 28, 2020 - 02:00 PM EST / 2020.11.28 1900 UTC
Wind: from the E (100 degrees) at 6 MPH (5 KT):0
Visibility: 4 mile(s):0
Sky conditions: partly cloudy
Temperature: 48 F (9 C)
Dew Point: 42 F (6 C)
Relative Humidity: 81%
Pressure (altimeter): 29.83 in. Hg (1010 hPa)
ob: LEPP 281900Z 10005KT 8000 SCT058 09/06 Q1010
cycle: 19

Station Type Date Time Source
LEPP TAF 2020/11/28 15:27 UTC NOAA

TAF LEPP 281400Z 2815/2915 VRB04KT 9999 FEW042 TX12/2815Z TN04/2908Z PROB40
TEMPO 2821/2911 3000 BR PROB30
TEMPO 2900/2909 0350 FG VV001

Example: see airport list